sensor_id;sensor_type;location;lat;lon;timestamp;pressure;altitude;pressure_sealevel;temperature;humidity
19128;BME280;9696;53.686;10.094;2023-04-26T07:07:23;101292.31;;;6.87;100.00
19128;BME280;9696;53.686;10.094;2023-04-26T07:09:52;101300.13;;;6.73;100.00
19128;BME280;9696;53.686;10.094;2023-04-26T07:12:22;101295.66;;;7.56;100.00
19128;BME280;9696;53.686;10.094;2023-04-26T07:14:51;101301.41;;;6.80;100.00
19128;BME280;9696;53.686;10.094;2023-04-26T07:17:20;101302.72;;;7.28;100.00
19128;BME280;9696;53.686;10.094;2023-04-26T07:19:49;101298.66;;;7.77;100.00
19128;BME280;9696;53.686;10.094;2023-04-26T07:22:18;101303.22;;;7.74;100.00
19128;BME280;9696;53.686;10.094;2023-04-26T07:24:49;101310.28;;;7.32;100.00
19128;BME280;9696;53.686;10.094;2023-04-26T07:27:18;101299.28;;;8.33;100.00
19128;BME280;9696;53.686;10.094;2023-04-26T07:29:47;101308.38;;;7.88;100.00
19128;BME280;9696;53.686;10.094;2023-04-26T07:32:16;101308.56;;;8.62;100.00
19128;BME280;9696;53.686;10.094;2023-04-26T07:34:45;101295.00;;;6.85;100.00
19128;BME280;9696;53.686;10.094;2023-04-26T07:37:15;101304.88;;;6.66;100.00
19128;BME280;9696;53.686;10.094;2023-04-26T07:39:44;101308.34;;;7.75;100.00
19128;BME280;9696;53.686;10.094;2023-04-26T07:42:14;101306.00;;;6.90;100.00
19128;BME280;9696;53.686;10.094;2023-04-26T07:44:44;101296.75;;;8.31;100.00
19128;BME280;9696;53.686;10.094;2023-04-26T07:47:15;101302.78;;;8.70;100.00
19128;BME280;9696;53.686;10.094;2023-04-26T07:49:44;101295.44;;;7.99;100.00
19128;BME280;9696;53.686;10.094;2023-04-26T07:52:14;101311.75;;;7.90;100.00
19128;BME280;9696;53.686;10.094;2023-04-26T07:54:45;101298.22;;;8.48;100.00
19128;BME280;9696;53.686;10.094;2023-04-26T07:57:15;101306.66;;;8.14;100.00
19128;BME280;9696;53.686;10.094;2023-04-26T07:59:44;101315.97;;;8.18;100.00
19128;BME280;9696;53.686;10.094;2023-04-26T08:02:14;101322.63;;;7.43;100.00
19128;BME280;9696;53.686;10.094;2023-04-26T08:04:47;101333.69;;;7.20;100.00
19128;BME280;9696;53.686;10.094;2023-04-26T08:07:19;101335.03;;;6.84;100.00
19128;BME280;9696;53.686;10.094;2023-04-26T08:09:49;101341.75;;;6.88;100.00
19128;BME280;9696;53.686;10.094;2023-04-26T08:12:20;101340.66;;;7.33;100.00
19128;BME280;9696;53.686;10.094;2023-04-26T08:14:49;101343.03;;;6.95;100.00
19128;BME280;9696;53.686;10.094;2023-04-26T08:17:18;101342.97;;;6.83;100.00
19128;BME280;9696;53.686;10.094;2023-04-26T08:19:47;101343.97;;;6.80;100.00
19128;BME280;9696;53.686;10.094;2023-04-26T08:22:16;101339.59;;;6.81;100.00
19128;BME280;9696;53.686;10.094;2023-04-26T08:24:48;101342.75;;;7.00;100.00
19128;BME280;9696;53.686;10.094;2023-04-26T08:27:19;101359.16;;;7.02;100.00
19128;BME280;9696;53.686;10.094;2023-04-26T08:29:48;101353.56;;;6.51;100.00
19128;BME280;9696;53.686;10.094;2023-04-26T08:32:18;101346.28;;;7.81;100.00
19128;BME280;9696;53.686;10.094;2023-04-26T08:34:47;101343.81;;;7.65;100.00
19128;BME280;9696;53.686;10.094;2023-04-26T08:37:16;101342.34;;;8.78;100.00
19128;BME280;9696;53.686;10.094;2023-04-26T08:39:45;101338.06;;;9.26;100.00
19128;BME280;9696;53.686;10.094;2023-04-26T08:42:15;101334.31;;;8.56;100.00
19128;BME280;9696;53.686;10.094;2023-04-26T08:44:46;101330.72;;;8.82;100.00
19128;BME280;9696;53.686;10.094;2023-04-26T08:47:18;101337.09;;;8.90;100.00
19128;BME280;9696;53.686;10.094;2023-04-26T08:49:53;101326.47;;;9.17;100.00
19128;BME280;9696;53.686;10.094;2023-04-26T08:52:27;101334.72;;;8.75;100.00
19128;BME280;9696;53.686;10.094;2023-04-26T08:54:58;101335.72;;;9.34;100.00
19128;BME280;9696;53.686;10.094;2023-04-26T08:57:27;101328.72;;;8.85;100.00
19128;BME280;9696;53.686;10.094;2023-04-26T09:00:02;101331.03;;;8.77;100.00
19128;BME280;9696;53.686;10.094;2023-04-26T09:02:33;101335.38;;;8.01;100.00
19128;BME280;9696;53.686;10.094;2023-04-26T09:05:03;101345.78;;;7.88;100.00
19128;BME280;9696;53.686;10.094;2023-04-26T09:07:39;101351.53;;;7.40;100.00
19128;BME280;9696;53.686;10.094;2023-04-26T09:10:10;101361.19;;;7.25;100.00
19128;BME280;9696;53.686;10.094;2023-04-26T09:12:40;101362.53;;;6.90;100.00
19128;BME280;9696;53.686;10.094;2023-04-26T09:15:12;101373.41;;;6.82;100.00
19128;BME280;9696;53.686;10.094;2023-04-26T09:17:42;101376.63;;;6.43;100.00
19128;BME280;9696;53.686;10.094;2023-04-26T09:20:18;101381.44;;;6.79;100.00
19128;BME280;9696;53.686;10.094;2023-04-26T09:22:48;101374.78;;;6.88;100.00
19128;BME280;9696;53.686;10.094;2023-04-26T09:25:25;101365.56;;;7.25;100.00
19128;BME280;9696;53.686;10.094;2023-04-26T09:27:55;101367.13;;;7.27;100.00
19128;BME280;9696;53.686;10.094;2023-04-26T09:30:26;101371.09;;;7.47;100.00
19128;BME280;9696;53.686;10.094;2023-04-26T09:32:57;101375.03;;;7.67;100.00
19128;BME280;9696;53.686;10.094;2023-04-26T09:35:29;101362.41;;;8.39;100.00
19128;BME280;9696;53.686;10.094;2023-04-26T09:37:59;101357.22;;;8.65;100.00
19128;BME280;9696;53.686;10.094;2023-04-26T09:40:38;101351.31;;;9.48;100.00
19128;BME280;9696;53.686;10.094;2023-04-26T09:43:10;101338.63;;;9.42;100.00
19128;BME280;9696;53.686;10.094;2023-04-26T09:45:45;101336.03;;;9.42;100.00
19128;BME280;9696;53.686;10.094;2023-04-26T09:48:20;101341.44;;;10.10;100.00
19128;BME280;9696;53.686;10.094;2023-04-26T09:50:54;101336.34;;;9.61;100.00
19128;BME280;9696;53.686;10.094;2023-04-26T09:53:28;101336.81;;;10.14;100.00
19128;BME280;9696;53.686;10.094;2023-04-26T09:56:06;101342.91;;;10.14;100.00
19128;BME280;9696;53.686;10.094;2023-04-26T09:58:36;101332.56;;;10.24;100.00
19128;BME280;9696;53.686;10.094;2023-04-26T10:01:08;101334.25;;;10.01;100.00
19128;BME280;9696;53.686;10.094;2023-04-26T10:03:39;101328.31;;;11.66;100.00
19128;BME280;9696;53.686;10.094;2023-04-26T10:06:11;101325.38;;;10.72;100.00
19128;BME280;9696;53.686;10.094;2023-04-26T10:08:40;101329.53;;;9.71;100.00
19128;BME280;9696;53.686;10.094;2023-04-26T10:11:09;101343.66;;;10.27;100.00
19128;BME280;9696;53.686;10.094;2023-04-26T10:13:40;101335.47;;;10.43;100.00
19128;BME280;9696;53.686;10.094;2023-04-26T10:16:11;101335.84;;;10.50;100.00
19128;BME280;9696;53.686;10.094;2023-04-26T10:18:40;101327.03;;;9.81;100.00
19128;BME280;9696;53.686;10.094;2023-04-26T10:21:11;101346.16;;;9.46;100.00
19128;BME280;9696;53.686;10.094;2023-04-26T10:23:42;101339.38;;;9.91;100.00
19128;BME280;9696;53.686;10.094;2023-04-26T10:26:45;101346.25;;;10.62;100.00
19128;BME280;9696;53.686;10.094;2023-04-26T10:29:14;101337.41;;;11.62;100.00
19128;BME280;9696;53.686;10.094;2023-04-26T10:32:05;101355.63;;;9.84;100.00
19128;BME280;9696;53.686;10.094;2023-04-26T10:34:35;101349.69;;;11.29;100.00
19128;BME280;9696;53.686;10.094;2023-04-26T10:37:12;101345.41;;;10.62;100.00
19128;BME280;9696;53.686;10.094;2023-04-26T10:39:42;101354.34;;;9.89;100.00
19128;BME280;9696;53.686;10.094;2023-04-26T10:42:19;101364.38;;;9.95;100.00
19128;BME280;9696;53.686;10.094;2023-04-26T10:44:54;101359.25;;;10.18;100.00
19128;BME280;9696;53.686;10.094;2023-04-26T10:47:27;101366.75;;;10.79;100.00
19128;BME280;9696;53.686;10.094;2023-04-26T10:50:04;101367.59;;;10.91;100.00
19128;BME280;9696;53.686;10.094;2023-04-26T10:52:34;101361.16;;;10.16;100.00
19128;BME280;9696;53.686;10.094;2023-04-26T10:55:04;101365.09;;;10.21;100.00
19128;BME280;9696;53.686;10.094;2023-04-26T10:57:49;101367.78;;;10.09;100.00
19128;BME280;9696;53.686;10.094;2023-04-26T11:00:29;101365.16;;;10.09;100.00
19128;BME280;9696;53.686;10.094;2023-04-26T11:03:05;101360.22;;;10.28;100.00
19128;BME280;9696;53.686;10.094;2023-04-26T11:06:01;101363.66;;;9.46;100.00
19128;BME280;9696;53.686;10.094;2023-04-26T11:08:34;101363.56;;;9.95;100.00
19128;BME280;9696;53.686;10.094;2023-04-26T11:11:09;101363.13;;;9.41;100.00
19128;BME280;9696;53.686;10.094;2023-04-26T11:13:39;101360.72;;;8.89;100.00
19128;BME280;9696;53.686;10.094;2023-04-26T11:16:10;101358.09;;;9.02;100.00
19128;BME280;9696;53.686;10.094;2023-04-26T11:18:42;101353.13;;;9.82;100.00
19128;BME280;9696;53.686;10.094;2023-04-26T11:21:12;101353.22;;;10.39;100.00
19128;BME280;9696;53.686;10.094;2023-04-26T11:23:52;101341.91;;;11.28;100.00
19128;BME280;9696;53.686;10.094;2023-04-26T11:26:22;101348.28;;;10.92;100.00
19128;BME280;9696;53.686;10.094;2023-04-26T11:28:51;101360.03;;;10.31;100.00
19128;BME280;9696;53.686;10.094;2023-04-26T11:31:21;101362.84;;;10.74;100.00
19128;BME280;9696;53.686;10.094;2023-04-26T11:33:51;101357.44;;;10.75;100.00
19128;BME280;9696;53.686;10.094;2023-04-26T11:36:22;101360.31;;;11.17;100.00
19128;BME280;9696;53.686;10.094;2023-04-26T11:38:51;101353.13;;;11.19;100.00
19128;BME280;9696;53.686;10.094;2023-04-26T11:41:22;101348.97;;;11.16;100.00
19128;BME280;9696;53.686;10.094;2023-04-26T11:43:51;101363.00;;;11.49;100.00
19128;BME280;9696;53.686;10.094;2023-04-26T11:46:21;101354.97;;;10.96;100.00
19128;BME280;9696;53.686;10.094;2023-04-26T11:48:52;101355.59;;;10.31;100.00
19128;BME280;9696;53.686;10.094;2023-04-26T11:51:22;101357.09;;;11.02;100.00
19128;BME280;9696;53.686;10.094;2023-04-26T11:53:51;101354.63;;;11.55;100.00
19128;BME280;9696;53.686;10.094;2023-04-26T11:56:21;101350.34;;;12.89;98.78
19128;BME280;9696;53.686;10.094;2023-04-26T11:58:51;101358.28;;;11.20;100.00
19128;BME280;9696;53.686;10.094;2023-04-26T12:01:22;101348.03;;;11.71;100.00
19128;BME280;9696;53.686;10.094;2023-04-26T12:03:55;101358.16;;;11.87;100.00
19128;BME280;9696;53.686;10.094;2023-04-26T12:06:40;101361.78;;;11.75;100.00
19128;BME280;9696;53.686;10.094;2023-04-26T12:09:10;101358.56;;;12.03;97.80
19128;BME280;9696;53.686;10.094;2023-04-26T12:11:40;101356.88;;;12.64;98.19
19128;BME280;9696;53.686;10.094;2023-04-26T12:14:09;101366.31;;;11.62;100.00
19128;BME280;9696;53.686;10.094;2023-04-26T12:16:38;101367.63;;;11.67;100.00
19128;BME280;9696;53.686;10.094;2023-04-26T12:19:11;101377.25;;;11.35;100.00
19128;BME280;9696;53.686;10.094;2023-04-26T12:21:41;101373.97;;;11.65;92.67
19128;BME280;9696;53.686;10.094;2023-04-26T12:24:22;101370.50;;;12.07;87.54
19128;BME280;9696;53.686;10.094;2023-04-26T12:26:51;101365.19;;;11.10;95.30
19128;BME280;9696;53.686;10.094;2023-04-26T12:29:20;101375.34;;;11.04;100.00
19128;BME280;9696;53.686;10.094;2023-04-26T12:31:49;101383.84;;;10.39;100.00
19128;BME280;9696;53.686;10.094;2023-04-26T12:34:20;101378.91;;;12.22;100.00
19128;BME280;9696;53.686;10.094;2023-04-26T12:36:49;101368.59;;;11.98;100.00
19128;BME280;9696;53.686;10.094;2023-04-26T12:39:18;101379.63;;;10.71;100.00
19128;BME280;9696;53.686;10.094;2023-04-26T12:41:47;101388.81;;;10.55;100.00
19128;BME280;9696;53.686;10.094;2023-04-26T12:44:17;101375.59;;;9.50;100.00
19128;BME280;9696;53.686;10.094;2023-04-26T12:46:49;101386.06;;;9.98;100.00
19128;BME280;9696;53.686;10.094;2023-04-26T12:49:20;101389.25;;;10.14;100.00
19128;BME280;9696;53.686;10.094;2023-04-26T12:51:49;101383.09;;;10.61;100.00
19128;BME280;9696;53.686;10.094;2023-04-26T12:54:19;101381.78;;;11.44;100.00
19128;BME280;9696;53.686;10.094;2023-04-26T12:56:48;101390.25;;;10.24;100.00
19128;BME280;9696;53.686;10.094;2023-04-26T12:59:17;101375.94;;;11.07;100.00
19128;BME280;9696;53.686;10.094;2023-04-26T13:01:46;101382.25;;;11.49;93.43
19128;BME280;9696;53.686;10.094;2023-04-26T13:04:15;101388.97;;;11.20;94.76
19128;BME280;9696;53.686;10.094;2023-04-26T13:06:46;101384.34;;;12.09;94.92
19128;BME280;9696;53.686;10.094;2023-04-26T13:09:15;101393.38;;;11.08;89.17
19128;BME280;9696;53.686;10.094;2023-04-26T13:11:44;101398.13;;;11.48;95.36
19128;BME280;9696;53.686;10.094;2023-04-26T13:14:13;101394.44;;;11.39;87.97
19128;BME280;9696;53.686;10.094;2023-04-26T13:16:42;101392.44;;;12.17;85.76
19128;BME280;9696;53.686;10.094;2023-04-26T13:19:11;101394.69;;;11.90;83.93
19128;BME280;9696;53.686;10.094;2023-04-26T13:21:41;101395.47;;;12.02;81.88
19128;BME280;9696;53.686;10.094;2023-04-26T13:24:11;101388.25;;;12.77;75.16
19128;BME280;9696;53.686;10.094;2023-04-26T13:26:40;101393.91;;;12.10;78.58
19128;BME280;9696;53.686;10.094;2023-04-26T13:29:09;101402.94;;;11.97;90.75
19128;BME280;9696;53.686;10.094;2023-04-26T13:31:38;101404.00;;;10.84;96.99
19128;BME280;9696;53.686;10.094;2023-04-26T13:34:07;101418.88;;;10.03;100.00
19128;BME280;9696;53.686;10.094;2023-04-26T13:36:37;101429.13;;;9.46;100.00
19128;BME280;9696;53.686;10.094;2023-04-26T13:39:06;101436.13;;;9.58;100.00
19128;BME280;9696;53.686;10.094;2023-04-26T13:41:37;101437.22;;;9.79;100.00
19128;BME280;9696;53.686;10.094;2023-04-26T13:44:06;101425.91;;;9.79;100.00
19128;BME280;9696;53.686;10.094;2023-04-26T13:46:35;101430.34;;;10.13;100.00
19128;BME280;9696;53.686;10.094;2023-04-26T13:49:04;101430.88;;;9.94;100.00
19128;BME280;9696;53.686;10.094;2023-04-26T13:51:33;101419.84;;;10.83;100.00
19128;BME280;9696;53.686;10.094;2023-04-26T13:54:03;101425.41;;;10.56;100.00
19128;BME280;9696;53.686;10.094;2023-04-26T13:56:33;101420.13;;;10.45;100.00
19128;BME280;9696;53.686;10.094;2023-04-26T13:59:03;101417.94;;;11.52;100.00
19128;BME280;9696;53.686;10.094;2023-04-26T14:01:35;101429.38;;;10.62;100.00
19128;BME280;9696;53.686;10.094;2023-04-26T14:04:04;101431.50;;;9.85;100.00
19128;BME280;9696;53.686;10.094;2023-04-26T14:06:36;101439.75;;;9.32;100.00
19128;BME280;9696;53.686;10.094;2023-04-26T14:09:05;101450.38;;;9.41;100.00
19128;BME280;9696;53.686;10.094;2023-04-26T14:11:35;101437.31;;;9.78;100.00
19128;BME280;9696;53.686;10.094;2023-04-26T14:14:06;101438.00;;;10.51;100.00
19128;BME280;9696;53.686;10.094;2023-04-26T14:16:35;101438.69;;;10.88;100.00
19128;BME280;9696;53.686;10.094;2023-04-26T14:19:04;101433.00;;;11.27;100.00
19128;BME280;9696;53.686;10.094;2023-04-26T14:21:33;101440.22;;;10.68;100.00
19128;BME280;9696;53.686;10.094;2023-04-26T14:24:03;101449.78;;;10.80;100.00
19128;BME280;9696;53.686;10.094;2023-04-26T14:26:33;101446.16;;;10.59;100.00
19128;BME280;9696;53.686;10.094;2023-04-26T14:29:02;101447.50;;;10.65;100.00
19128;BME280;9696;53.686;10.094;2023-04-26T14:31:33;101441.91;;;9.87;100.00
19128;BME280;9696;53.686;10.094;2023-04-26T14:34:02;101441.97;;;9.62;100.00
19128;BME280;9696;53.686;10.094;2023-04-26T14:36:31;101440.13;;;9.51;100.00
19128;BME280;9696;53.686;10.094;2023-04-26T14:39:00;101467.69;;;9.31;100.00
19128;BME280;9696;53.686;10.094;2023-04-26T14:41:29;101488.66;;;8.27;100.00
19128;BME280;9696;53.686;10.094;2023-04-26T14:43:58;101476.09;;;8.20;100.00
19128;BME280;9696;53.686;10.094;2023-04-26T14:46:27;101468.53;;;7.88;100.00
19128;BME280;9696;53.686;10.094;2023-04-26T14:48:58;101478.09;;;8.02;100.00
19128;BME280;9696;53.686;10.094;2023-04-26T14:51:27;101468.88;;;8.37;100.00
19128;BME280;9696;53.686;10.094;2023-04-26T14:53:56;101472.44;;;9.75;100.00
19128;BME280;9696;53.686;10.094;2023-04-26T14:56:30;101461.94;;;10.35;100.00
19128;BME280;9696;53.686;10.094;2023-04-26T14:59:00;101454.19;;;10.80;100.00
19128;BME280;9696;53.686;10.094;2023-04-26T15:01:30;101463.00;;;10.68;100.00
19128;BME280;9696;53.686;10.094;2023-04-26T15:04:01;101465.94;;;11.20;100.00
19128;BME280;9696;53.686;10.094;2023-04-26T15:06:30;101462.47;;;10.52;100.00
19128;BME280;9696;53.686;10.094;2023-04-26T15:09:00;101465.25;;;9.54;100.00
19128;BME280;9696;53.686;10.094;2023-04-26T15:11:29;101469.19;;;9.95;100.00
19128;BME280;9696;53.686;10.094;2023-04-26T15:13:58;101475.00;;;9.52;100.00
19128;BME280;9696;53.686;10.094;2023-04-26T15:16:27;101477.03;;;9.35;100.00
19128;BME280;9696;53.686;10.094;2023-04-26T15:18:56;101478.97;;;8.81;100.00
19128;BME280;9696;53.686;10.094;2023-04-26T15:21:27;101468.75;;;9.04;100.00
19128;BME280;9696;53.686;10.094;2023-04-26T15:23:56;101480.97;;;9.54;100.00
19128;BME280;9696;53.686;10.094;2023-04-26T15:26:26;101469.69;;;10.37;100.00
19128;BME280;9696;53.686;10.094;2023-04-26T15:28:57;101467.97;;;11.39;100.00
19128;BME280;9696;53.686;10.094;2023-04-26T15:31:27;101465.72;;;11.57;100.00
19128;BME280;9696;53.686;10.094;2023-04-26T15:33:56;101458.91;;;11.32;100.00
19128;BME280;9696;53.686;10.094;2023-04-26T15:36:26;101464.38;;;11.07;100.00
19128;BME280;9696;53.686;10.094;2023-04-26T15:38:56;101455.56;;;11.08;100.00
19128;BME280;9696;53.686;10.094;2023-04-26T15:41:25;101463.06;;;10.20;100.00
19128;BME280;9696;53.686;10.094;2023-04-26T15:43:54;101458.38;;;9.40;100.00
19128;BME280;9696;53.686;10.094;2023-04-26T15:46:23;101470.09;;;9.22;100.00
19128;BME280;9696;53.686;10.094;2023-04-26T15:48:52;101467.78;;;9.55;100.00
19128;BME280;9696;53.686;10.094;2023-04-26T15:51:21;101467.75;;;9.68;100.00
19128;BME280;9696;53.686;10.094;2023-04-26T15:53:52;101466.69;;;9.70;100.00
19128;BME280;9696;53.686;10.094;2023-04-26T15:56:21;101467.53;;;9.58;100.00
19128;BME280;9696;53.686;10.094;2023-04-26T15:58:50;101467.47;;;9.47;100.00
19128;BME280;9696;53.686;10.094;2023-04-26T16:01:19;101476.59;;;9.29;100.00
19128;BME280;9696;53.686;10.094;2023-04-26T16:03:48;101479.81;;;9.45;100.00
19128;BME280;9696;53.686;10.094;2023-04-26T16:06:19;101484.47;;;9.04;100.00
19128;BME280;9696;53.686;10.094;2023-04-26T16:08:48;101480.63;;;8.57;100.00
19128;BME280;9696;53.686;10.094;2023-04-26T16:11:19;101483.50;;;8.79;100.00
19128;BME280;9696;53.686;10.094;2023-04-26T16:13:48;101488.69;;;8.67;100.00
19128;BME280;9696;53.686;10.094;2023-04-26T16:16:19;101490.91;;;8.85;100.00
19128;BME280;9696;53.686;10.094;2023-04-26T16:18:48;101487.88;;;8.79;100.00
19128;BME280;9696;53.686;10.094;2023-04-26T16:21:17;101484.47;;;8.51;100.00
19128;BME280;9696;53.686;10.094;2023-04-26T16:23:47;101489.97;;;8.61;100.00
19128;BME280;9696;53.686;10.094;2023-04-26T16:26:19;101495.81;;;8.65;100.00
19128;BME280;9696;53.686;10.094;2023-04-26T16:28:49;101488.53;;;8.43;100.00
19128;BME280;9696;53.686;10.094;2023-04-26T16:31:18;101496.75;;;8.64;100.00
19128;BME280;9696;53.686;10.094;2023-04-26T16:33:47;101500.13;;;8.39;100.00
19128;BME280;9696;53.686;10.094;2023-04-26T16:36:16;101498.06;;;8.44;100.00
19128;BME280;9696;53.686;10.094;2023-04-26T16:38:45;101496.50;;;8.27;100.00
19128;BME280;9696;53.686;10.094;2023-04-26T16:41:15;101491.78;;;8.46;100.00
19128;BME280;9696;53.686;10.094;2023-04-26T16:43:45;101492.41;;;8.50;100.00
19128;BME280;9696;53.686;10.094;2023-04-26T16:46:14;101502.41;;;8.70;100.00
19128;BME280;9696;53.686;10.094;2023-04-26T16:48:44;101493.91;;;8.54;100.00
19128;BME280;9696;53.686;10.094;2023-04-26T16:51:13;101496.63;;;8.52;100.00
19128;BME280;9696;53.686;10.094;2023-04-26T16:53:42;101511.97;;;8.44;100.00
19128;BME280;9696;53.686;10.094;2023-04-26T16:56:11;101509.66;;;8.26;100.00
19128;BME280;9696;53.686;10.094;2023-04-26T16:58:40;101498.59;;;8.49;100.00
19128;BME280;9696;53.686;10.094;2023-04-26T17:01:11;101505.16;;;8.42;100.00
19128;BME280;9696;53.686;10.094;2023-04-26T17:03:40;101501.84;;;8.52;100.00
19128;BME280;9696;53.686;10.094;2023-04-26T17:06:10;101505.78;;;8.72;100.00
19128;BME280;9696;53.686;10.094;2023-04-26T17:08:39;101504.69;;;8.62;100.00
19128;BME280;9696;53.686;10.094;2023-04-26T17:11:08;101504.63;;;8.76;100.00
19128;BME280;9696;53.686;10.094;2023-04-26T17:13:37;101501.81;;;8.79;100.00
19128;BME280;9696;53.686;10.094;2023-04-26T17:16:06;101506.44;;;8.49;100.00
19128;BME280;9696;53.686;10.094;2023-04-26T17:18:37;101510.69;;;8.23;100.00
19128;BME280;9696;53.686;10.094;2023-04-26T17:21:07;101512.94;;;7.88;100.00
19128;BME280;9696;53.686;10.094;2023-04-26T17:23:36;101520.06;;;7.72;100.00
19128;BME280;9696;53.686;10.094;2023-04-26T17:26:05;101517.63;;;7.69;100.00
19128;BME280;9696;53.686;10.094;2023-04-26T17:28:35;101518.47;;;7.70;100.00
19128;BME280;9696;53.686;10.094;2023-04-26T17:31:05;101519.38;;;7.83;100.00
19128;BME280;9696;53.686;10.094;2023-04-26T17:33:35;101518.66;;;7.81;100.00
19128;BME280;9696;53.686;10.094;2023-04-26T17:36:06;101521.44;;;7.92;100.00
19128;BME280;9696;53.686;10.094;2023-04-26T17:38:35;101525.97;;;8.02;100.00
19128;BME280;9696;53.686;10.094;2023-04-26T17:41:05;101516.56;;;8.00;100.00
19128;BME280;9696;53.686;10.094;2023-04-26T17:43:34;101516.31;;;7.76;100.00
19128;BME280;9696;53.686;10.094;2023-04-26T17:46:03;101528.44;;;7.77;100.00
19128;BME280;9696;53.686;10.094;2023-04-26T17:48:36;101529.66;;;7.86;100.00
19128;BME280;9696;53.686;10.094;2023-04-26T17:51:06;101532.66;;;7.51;100.00
19128;BME280;9696;53.686;10.094;2023-04-26T17:53:36;101527.34;;;7.53;100.00
19128;BME280;9696;53.686;10.094;2023-04-26T17:56:06;101529.75;;;7.56;100.00
19128;BME280;9696;53.686;10.094;2023-04-26T17:58:38;101537.56;;;7.28;100.00
19128;BME280;9696;53.686;10.094;2023-04-26T18:01:09;101534.97;;;7.28;100.00
19128;BME280;9696;53.686;10.094;2023-04-26T18:03:38;101533.19;;;7.28;100.00
19128;BME280;9696;53.686;10.094;2023-04-26T18:06:09;101545.03;;;7.20;100.00
19128;BME280;9696;53.686;10.094;2023-04-26T18:08:38;101539.06;;;7.18;100.00
19128;BME280;9696;53.686;10.094;2023-04-26T18:11:08;101543.50;;;7.01;100.00
19128;BME280;9696;53.686;10.094;2023-04-26T18:13:37;101544.53;;;6.99;100.00
19128;BME280;9696;53.686;10.094;2023-04-26T18:16:06;101543.81;;;6.81;100.00
19128;BME280;9696;53.686;10.094;2023-04-26T18:18:35;101541.97;;;6.83;100.00
19128;BME280;9696;53.686;10.094;2023-04-26T18:21:04;101546.94;;;6.72;100.00
19128;BME280;9696;53.686;10.094;2023-04-26T18:23:35;101554.53;;;6.61;100.00
19128;BME280;9696;53.686;10.094;2023-04-26T18:26:04;101554.94;;;6.69;100.00
19128;BME280;9696;53.686;10.094;2023-04-26T18:28:33;101549.78;;;6.53;100.00
19128;BME280;9696;53.686;10.094;2023-04-26T18:31:02;101556.41;;;6.59;100.00
19128;BME280;9696;53.686;10.094;2023-04-26T18:33:32;101557.41;;;6.56;100.00
19128;BME280;9696;53.686;10.094;2023-04-26T18:36:01;101556.69;;;6.39;100.00
19128;BME280;9696;53.686;10.094;2023-04-26T18:38:30;101560.13;;;6.39;100.00
19128;BME280;9696;53.686;10.094;2023-04-26T18:41:01;101555.66;;;6.41;100.00
19128;BME280;9696;53.686;10.094;2023-04-26T18:43:31;101556.44;;;6.28;100.00
19128;BME280;9696;53.686;10.094;2023-04-26T18:46:00;101561.06;;;6.23;100.00
19128;BME280;9696;53.686;10.094;2023-04-26T18:48:29;101566.44;;;6.20;100.00
19128;BME280;9696;53.686;10.094;2023-04-26T18:50:58;101561.50;;;6.15;100.00
19128;BME280;9696;53.686;10.094;2023-04-26T18:53:28;101565.19;;;6.11;100.00
19128;BME280;9696;53.686;10.094;2023-04-26T18:55:57;101564.69;;;6.20;100.00
19128;BME280;9696;53.686;10.094;2023-04-26T18:58:28;101566.28;;;6.07;100.00
19128;BME280;9696;53.686;10.094;2023-04-26T19:00:57;101567.25;;;6.04;100.00
19128;BME280;9696;53.686;10.094;2023-04-26T19:03:26;101575.91;;;6.05;100.00
19128;BME280;9696;53.686;10.094;2023-04-26T19:05:55;101576.25;;;5.99;100.00
19128;BME280;9696;53.686;10.094;2023-04-26T19:08:25;101580.03;;;5.93;100.00
19128;BME280;9696;53.686;10.094;2023-04-26T19:10:54;101576.44;;;5.79;100.00
19128;BME280;9696;53.686;10.094;2023-04-26T19:13:23;101586.78;;;5.80;100.00
19128;BME280;9696;53.686;10.094;2023-04-26T19:15:53;101585.28;;;5.76;100.00
19128;BME280;9696;53.686;10.094;2023-04-26T19:18:23;101602.13;;;5.69;100.00
19128;BME280;9696;53.686;10.094;2023-04-26T19:20:52;101596.72;;;5.56;100.00
19128;BME280;9696;53.686;10.094;2023-04-26T19:23:21;101602.22;;;5.50;100.00
19128;BME280;9696;53.686;10.094;2023-04-26T19:25:50;101605.38;;;5.57;100.00
19128;BME280;9696;53.686;10.094;2023-04-26T19:28:19;101606.19;;;5.57;100.00
19128;BME280;9696;53.686;10.094;2023-04-26T19:30:48;101608.03;;;5.55;100.00
19128;BME280;9696;53.686;10.094;2023-04-26T19:33:19;101604.31;;;5.44;100.00
19128;BME280;9696;53.686;10.094;2023-04-26T19:35:48;101607.81;;;5.43;100.00
19128;BME280;9696;53.686;10.094;2023-04-26T19:38:17;101605.38;;;5.40;100.00
19128;BME280;9696;53.686;10.094;2023-04-26T19:40:47;101610.59;;;5.40;100.00
19128;BME280;9696;53.686;10.094;2023-04-26T19:43:16;101603.31;;;5.46;100.00
19128;BME280;9696;53.686;10.094;2023-04-26T19:45:45;101611.50;;;5.39;100.00
19128;BME280;9696;53.686;10.094;2023-04-26T19:48:14;101612.50;;;5.36;100.00
19128;BME280;9696;53.686;10.094;2023-04-26T19:50:45;101610.38;;;5.27;100.00
19128;BME280;9696;53.686;10.094;2023-04-26T19:53:15;101610.75;;;5.19;100.00
19128;BME280;9696;53.686;10.094;2023-04-26T19:55:44;101618.41;;;5.22;100.00
19128;BME280;9696;53.686;10.094;2023-04-26T19:58:13;101607.41;;;5.17;100.00
19128;BME280;9696;53.686;10.094;2023-04-26T20:00:43;101610.13;;;5.14;100.00
19128;BME280;9696;53.686;10.094;2023-04-26T20:03:12;101612.28;;;5.06;100.00
19128;BME280;9696;53.686;10.094;2023-04-26T20:05:41;101620.38;;;5.00;100.00
19128;BME280;9696;53.686;10.094;2023-04-26T20:08:12;101612.72;;;5.14;100.00
19128;BME280;9696;53.686;10.094;2023-04-26T20:10:41;101617.19;;;5.12;100.00